createdAt,value
2022-09-15T00:02:38.479Z,14.37
2022-09-15T00:06:40.695Z,14.36
2022-09-15T00:10:58.011Z,14.38
2022-09-15T00:15:00.454Z,14.31
2022-09-15T00:19:03.602Z,14.26
2022-09-15T00:23:05.537Z,14.21
2022-09-15T00:27:10.236Z,14.17
2022-09-15T00:31:18.165Z,14.19
2022-09-15T00:35:20.229Z,14.28
2022-09-15T00:39:22.141Z,14.38
2022-09-15T00:44:06.075Z,14.48
2022-09-15T00:48:17.067Z,14.44
2022-09-15T00:52:34.108Z,14.33
2022-09-15T00:56:39.500Z,14.20
2022-09-15T01:00:47.287Z,14.22
2022-09-15T01:04:57.461Z,14.29
2022-09-15T01:09:20.283Z,14.29
2022-09-15T01:13:22.303Z,14.27
2022-09-15T01:17:53.284Z,14.36
2022-09-15T01:22:21.378Z,14.46
2022-09-15T01:26:55.997Z,14.51
2022-09-15T01:31:09.000Z,14.46
2022-09-15T01:35:19.370Z,14.44
2022-09-15T01:39:27.007Z,14.31
2022-09-15T01:43:30.561Z,14.20
2022-09-15T01:47:36.348Z,14.20
2022-09-15T01:51:40.456Z,14.28
2022-09-15T01:56:00.047Z,14.37
2022-09-15T02:00:02.367Z,14.42
2022-09-15T02:04:17.863Z,14.41
2022-09-15T02:08:31.301Z,14.46
2022-09-15T02:12:51.343Z,14.52
2022-09-15T02:16:54.301Z,14.50
2022-09-15T02:21:07.733Z,14.42
2022-09-15T02:25:16.112Z,14.40
2022-09-15T02:29:21.190Z,14.40
2022-09-15T02:33:29.272Z,14.43
2022-09-15T02:37:31.302Z,14.36
2022-09-15T02:41:35.728Z,14.25
2022-09-15T02:45:37.826Z,14.31
2022-09-15T02:49:39.820Z,14.41
2022-09-15T02:53:43.006Z,14.47
2022-09-15T02:57:45.075Z,14.52
2022-09-15T03:01:47.744Z,14.55
2022-09-15T03:05:49.822Z,14.57
2022-09-15T03:09:51.872Z,14.53
2022-09-15T03:13:56.288Z,14.46
2022-09-15T03:17:58.285Z,14.48
2022-09-15T03:22:09.913Z,14.48
2022-09-15T03:26:14.847Z,14.51
2022-09-15T03:30:19.494Z,14.51
2022-09-15T03:34:21.691Z,14.44
2022-09-15T03:38:33.632Z,14.44
2022-09-15T03:42:36.057Z,14.44
2022-09-15T03:46:38.025Z,14.48
2022-09-15T03:50:40.131Z,14.51
2022-09-15T03:54:42.120Z,14.44
2022-09-15T03:58:44.131Z,14.33
2022-09-15T04:02:46.130Z,14.32
2022-09-15T04:06:48.163Z,14.39
2022-09-15T04:10:50.184Z,14.47
2022-09-15T04:14:52.388Z,14.62
2022-09-15T04:18:55.028Z,14.59
2022-09-15T04:22:58.316Z,14.61
2022-09-15T04:27:00.473Z,14.72
2022-09-15T04:31:13.510Z,14.79
2022-09-15T04:35:16.991Z,14.73
2022-09-15T04:39:19.461Z,14.69
2022-09-15T04:43:22.014Z,14.73
2022-09-15T04:47:24.028Z,14.78
2022-09-15T04:51:26.826Z,14.82
2022-09-15T04:55:31.894Z,14.86
2022-09-15T04:59:34.290Z,14.82
2022-09-15T05:03:38.163Z,14.74
2022-09-15T05:07:40.513Z,14.75
2022-09-15T05:11:42.766Z,14.80
2022-09-15T05:15:44.708Z,14.86
2022-09-15T05:19:46.757Z,14.93
2022-09-15T05:23:51.395Z,15.01
2022-09-15T05:27:53.527Z,15.04
2022-09-15T05:31:55.639Z,15.03
2022-09-15T05:36:01.846Z,15.08
2022-09-15T05:40:08.270Z,15.13
2022-09-15T05:44:11.054Z,15.21
2022-09-15T05:48:13.143Z,15.27
2022-09-15T05:52:15.184Z,15.22
2022-09-15T05:56:17.964Z,15.17
2022-09-15T06:00:19.939Z,15.12
2022-09-15T06:04:21.925Z,15.19
2022-09-15T06:08:24.210Z,15.30
2022-09-15T06:12:27.151Z,15.40
2022-09-15T06:16:32.586Z,15.47
2022-09-15T06:20:34.710Z,15.51
2022-09-15T06:24:36.800Z,15.53
2022-09-15T06:28:40.370Z,15.62
2022-09-15T06:32:47.391Z,15.70
2022-09-15T06:36:50.241Z,15.70
2022-09-15T06:40:56.855Z,15.64
2022-09-15T06:44:59.023Z,15.51
2022-09-15T06:49:01.266Z,15.41
2022-09-15T06:53:03.189Z,15.31
2022-09-15T06:57:05.365Z,15.32
2022-09-15T07:01:10.145Z,15.32
2022-09-15T07:05:12.305Z,15.30
2022-09-15T07:09:14.505Z,15.23
2022-09-15T07:13:16.524Z,15.19
2022-09-15T07:17:19.405Z,15.28
2022-09-15T07:21:22.128Z,15.38
2022-09-15T07:25:24.077Z,15.47
2022-09-15T07:29:26.128Z,15.59
2022-09-15T07:33:33.990Z,15.62
2022-09-15T07:37:36.289Z,15.60
2022-09-15T07:41:38.414Z,15.51
2022-09-15T07:45:40.656Z,15.44
2022-09-15T07:49:43.166Z,15.46
2022-09-15T07:53:47.857Z,15.46
2022-09-15T07:57:59.026Z,15.41
2022-09-15T08:02:01.146Z,15.35
2022-09-15T08:06:03.481Z,15.29
2022-09-15T08:10:06.002Z,15.27
2022-09-15T08:14:08.485Z,15.27
2022-09-15T08:18:11.352Z,15.27
2022-09-15T08:22:13.577Z,15.28
2022-09-15T08:26:15.670Z,15.37
2022-09-15T08:30:17.964Z,15.47
2022-09-15T08:34:21.113Z,15.59
2022-09-15T08:38:23.127Z,15.78
2022-09-15T08:42:26.473Z,15.95
2022-09-15T08:46:58.018Z,15.95
2022-09-15T08:51:05.466Z,15.91
2022-09-15T08:55:20.889Z,15.95
2022-09-15T08:59:31.206Z,16.07
2022-09-15T09:03:48.416Z,16.32
2022-09-15T09:08:08.955Z,16.48
2022-09-15T09:12:49.233Z,16.73
2022-09-15T09:17:10.335Z,16.92
2022-09-15T09:21:12.374Z,16.97
2022-09-15T09:25:27.360Z,17.11
2022-09-15T09:29:35.528Z,17.23
2022-09-15T09:34:05.736Z,17.27
2022-09-15T09:38:10.982Z,17.16
2022-09-15T09:42:17.891Z,17.16
2022-09-15T09:46:21.125Z,17.27
2022-09-15T09:50:34.325Z,17.38
2022-09-15T09:54:36.453Z,17.42
2022-09-15T09:58:38.414Z,17.57
2022-09-15T10:02:47.632Z,17.67
2022-09-15T10:06:49.601Z,17.46
2022-09-15T10:10:54.014Z,17.28
2022-09-15T10:14:59.430Z,17.15
2022-09-15T10:19:01.623Z,17.04
2022-09-15T10:23:22.247Z,17.17
2022-09-15T10:27:31.866Z,17.47
2022-09-15T10:31:35.495Z,17.68
2022-09-15T10:35:47.728Z,17.94
2022-09-15T10:39:53.861Z,18.16
2022-09-15T10:44:10.520Z,18.51
2022-09-15T10:48:43.393Z,18.84
2022-09-15T10:53:16.685Z,19.16
2022-09-15T10:57:18.647Z,19.24
2022-09-15T11:01:29.680Z,19.31
2022-09-15T11:06:09.385Z,19.47
2022-09-15T11:10:36.892Z,19.77
2022-09-15T11:14:38.715Z,20.02
2022-09-15T11:18:58.939Z,20.08
2022-09-15T11:23:17.667Z,19.96
2022-09-15T11:27:23.320Z,19.71
2022-09-15T11:31:29.905Z,19.68
2022-09-15T11:35:50.715Z,19.86
2022-09-15T11:40:05.227Z,20.06
2022-09-15T11:44:17.023Z,20.28
2022-09-15T11:48:28.995Z,20.33
2022-09-15T11:52:49.815Z,20.22
2022-09-15T11:56:53.292Z,20.15
2022-09-15T12:01:10.661Z,20.08
2022-09-15T12:05:40.432Z,19.92
2022-09-15T12:09:42.974Z,19.54
2022-09-15T12:13:45.297Z,19.21
2022-09-15T12:18:34.845Z,19.02
2022-09-15T12:22:54.016Z,18.81
2022-09-15T12:26:58.801Z,18.74
2022-09-15T12:31:25.817Z,18.90
2022-09-15T12:35:33.021Z,19.01
2022-09-15T12:39:46.107Z,19.16
2022-09-15T12:43:55.787Z,19.24
2022-09-15T12:48:03.309Z,19.25
2022-09-15T12:52:07.321Z,19.29
2022-09-15T12:56:21.339Z,19.16
2022-09-15T13:00:28.406Z,18.98
2022-09-15T13:04:43.339Z,18.88
2022-09-15T13:08:46.562Z,18.83
2022-09-15T13:12:54.588Z,18.80
2022-09-15T13:17:06.841Z,18.82
2022-09-15T13:21:15.905Z,18.87
2022-09-15T13:25:24.629Z,19.01
2022-09-15T13:29:32.460Z,19.11
2022-09-15T13:38:33.608Z,19.26
2022-09-15T13:42:41.438Z,19.39
2022-09-15T13:47:14.291Z,19.36
2022-09-15T13:51:27.353Z,19.18
2022-09-15T13:55:38.167Z,19.10
2022-09-15T13:59:41.082Z,19.11
2022-09-15T14:03:52.894Z,19.08
2022-09-15T14:08:05.232Z,19.17
2022-09-15T14:12:10.279Z,19.38
2022-09-15T14:16:28.607Z,19.44
2022-09-15T14:20:32.166Z,19.61
2022-09-15T14:24:39.856Z,19.78
2022-09-15T14:28:52.531Z,19.88
2022-09-15T14:33:00.490Z,19.91
2022-09-15T14:37:12.223Z,19.86
2022-09-15T14:41:18.965Z,19.69
2022-09-15T14:46:01.515Z,19.37
2022-09-15T14:50:17.079Z,19.09
2022-09-15T14:54:27.900Z,18.92
2022-09-15T14:58:51.383Z,18.77
2022-09-15T15:03:27.801Z,18.66
2022-09-15T15:07:34.356Z,18.50
2022-09-15T15:11:38.699Z,18.42
2022-09-15T15:15:41.884Z,18.35
2022-09-15T15:19:47.440Z,18.32
2022-09-15T15:23:49.985Z,18.25
2022-09-15T15:27:59.721Z,18.17
2022-09-15T15:32:10.198Z,18.03
2022-09-15T15:36:13.125Z,17.97
2022-09-15T15:40:20.601Z,17.93
2022-09-15T15:44:27.905Z,17.86
2022-09-15T15:48:37.922Z,17.80
2022-09-15T15:52:41.163Z,17.78
2022-09-15T15:56:43.087Z,17.75
2022-09-15T16:00:51.284Z,17.73
2022-09-15T16:04:53.108Z,17.69
2022-09-15T16:08:57.759Z,17.63
2022-09-15T16:12:59.631Z,17.60
2022-09-15T16:17:01.571Z,17.56
2022-09-15T16:21:03.559Z,17.54
2022-09-15T16:25:40.415Z,17.54
2022-09-15T16:29:43.455Z,17.53
2022-09-15T16:33:45.545Z,17.46
2022-09-15T16:37:47.435Z,17.33
2022-09-15T16:41:49.449Z,17.10
2022-09-15T16:45:52.199Z,16.93
2022-09-15T16:49:54.281Z,16.78
2022-09-15T16:53:56.353Z,16.75
2022-09-15T16:58:01.536Z,16.75
2022-09-15T17:02:11.992Z,16.73
2022-09-15T17:06:18.183Z,16.66
2022-09-15T17:10:20.163Z,16.58
2022-09-15T17:14:22.036Z,16.52
2022-09-15T17:18:25.464Z,16.49
2022-09-15T17:22:27.626Z,16.44
2022-09-15T17:26:31.564Z,16.37
2022-09-15T17:30:35.423Z,16.25
2022-09-15T17:34:37.273Z,16.12
2022-09-15T17:38:40.659Z,15.98
2022-09-15T17:42:43.950Z,15.86
2022-09-15T17:46:46.338Z,15.79
2022-09-15T17:50:49.174Z,15.69
2022-09-15T17:54:51.159Z,15.63
2022-09-15T17:58:53.101Z,15.55
2022-09-15T18:02:57.997Z,15.47
2022-09-15T18:06:59.990Z,15.42
2022-09-15T18:11:03.553Z,15.37
2022-09-15T18:15:06.212Z,15.36
2022-09-15T18:19:08.209Z,15.33
2022-09-15T18:23:16.781Z,15.25
2022-09-15T18:27:18.786Z,15.18
2022-09-15T18:31:20.758Z,15.11
2022-09-15T18:35:24.196Z,15.06
2022-09-15T18:39:26.155Z,15.07
2022-09-15T18:43:28.372Z,15.07
2022-09-15T18:47:30.889Z,15.04
2022-09-15T18:51:50.603Z,14.98
2022-09-15T18:55:53.360Z,14.91
2022-09-15T18:59:55.396Z,14.86
2022-09-15T19:03:57.595Z,14.82
2022-09-15T19:08:00.658Z,14.80
2022-09-15T19:12:03.886Z,14.76
2022-09-15T19:16:06.945Z,14.74
2022-09-15T19:20:12.199Z,14.68
2022-09-15T19:24:15.706Z,14.65
2022-09-15T19:28:17.723Z,14.67
2022-09-15T19:32:20.576Z,14.71
2022-09-15T19:36:29.651Z,14.74
2022-09-15T19:40:31.884Z,14.75
2022-09-15T19:44:33.922Z,14.71
2022-09-15T19:48:38.799Z,14.68
2022-09-15T19:52:43.385Z,14.67
2022-09-15T19:56:45.294Z,14.65
2022-09-15T20:00:55.450Z,14.65
2022-09-15T20:09:18.062Z,14.61
2022-09-15T20:13:20.027Z,14.55
2022-09-15T20:17:21.998Z,14.53
2022-09-15T20:21:48.798Z,14.53
2022-09-15T20:26:03.387Z,14.55
2022-09-15T20:30:21.324Z,14.52
2022-09-15T20:34:23.319Z,14.49
2022-09-15T20:38:25.209Z,14.45
2022-09-15T20:42:27.084Z,14.46
2022-09-15T20:46:30.841Z,14.46
2022-09-15T20:50:32.755Z,14.39
2022-09-15T20:54:34.773Z,14.32
2022-09-15T20:58:37.560Z,14.28
2022-09-15T21:02:39.590Z,14.28
2022-09-15T21:06:41.645Z,14.27
2022-09-15T21:10:45.205Z,14.23
2022-09-15T21:14:47.304Z,14.24
2022-09-15T21:18:50.500Z,14.24
2022-09-15T21:22:55.887Z,14.26
2022-09-15T21:27:16.342Z,14.29
2022-09-15T21:31:20.956Z,14.28
2022-09-15T21:35:22.933Z,14.25
2022-09-15T21:39:24.973Z,14.24
2022-09-15T21:43:31.069Z,14.23
2022-09-15T21:47:33.838Z,14.21
2022-09-15T21:51:35.780Z,14.18
2022-09-15T21:55:37.764Z,14.18
2022-09-15T21:59:40.249Z,14.16
2022-09-15T22:03:42.716Z,14.13
2022-09-15T22:07:44.636Z,14.13
2022-09-15T22:11:48.734Z,14.12
2022-09-15T22:15:51.594Z,14.13
2022-09-15T22:19:53.486Z,14.10
2022-09-15T22:23:56.934Z,14.07
2022-09-15T22:27:58.813Z,14.07
2022-09-15T22:32:00.822Z,14.07
2022-09-15T22:36:03.433Z,14.07
2022-09-15T22:40:06.067Z,14.08
2022-09-15T22:44:18.241Z,14.03
2022-09-15T22:48:20.173Z,14.01
2022-09-15T22:52:22.084Z,13.99
2022-09-15T22:56:25.583Z,13.94
2022-09-15T23:00:28.492Z,13.88
2022-09-15T23:04:30.426Z,13.81
2022-09-15T23:08:32.513Z,13.73
2022-09-15T23:12:34.518Z,13.67
2022-09-15T23:16:36.511Z,13.64
2022-09-15T23:20:39.385Z,13.60
2022-09-15T23:24:41.412Z,13.55
2022-09-15T23:28:43.417Z,13.50
2022-09-15T23:32:45.391Z,13.44
2022-09-15T23:36:47.388Z,13.37
2022-09-15T23:40:50.169Z,13.32
2022-09-15T23:44:52.104Z,13.28
2022-09-15T23:48:54.024Z,13.26
2022-09-15T23:52:55.909Z,13.25
2022-09-15T23:56:57.965Z,13.24
